createdAt,value
2017-08-08T00:02:20.227Z,40.10
2017-08-08T00:04:48.398Z,41.10
2017-08-08T00:07:16.574Z,41.30
2017-08-08T00:09:44.764Z,41.10
2017-08-08T00:12:12.879Z,40.90
2017-08-08T00:14:41.003Z,40.50
2017-08-08T00:17:09.166Z,40.90
2017-08-08T00:19:38.017Z,40.40
2017-08-08T00:22:06.119Z,40.70
2017-08-08T00:24:35.026Z,40.60
2017-08-08T00:27:03.919Z,41.50
2017-08-08T00:29:32.017Z,41.30
2017-08-08T00:32:00.159Z,41.00
2017-08-08T00:34:28.254Z,41.10
2017-08-08T00:36:56.406Z,41.40
2017-08-08T00:39:24.587Z,41.00
2017-08-08T00:41:52.682Z,41.50
2017-08-08T00:44:21.538Z,42.70
2017-08-08T00:46:49.718Z,41.00
2017-08-08T00:49:17.794Z,41.70
2017-08-08T00:51:45.962Z,42.00
2017-08-08T00:54:14.442Z,40.90
2017-08-08T00:56:42.518Z,41.40
2017-08-08T00:59:10.690Z,41.50
2017-08-08T01:01:38.867Z,42.00
2017-08-08T01:04:07.046Z,41.80
2017-08-08T01:06:35.218Z,42.40
2017-08-08T01:09:03.346Z,42.10
2017-08-08T01:11:31.422Z,42.20
2017-08-08T01:13:59.523Z,42.40
2017-08-08T01:16:27.598Z,43.00
2017-08-08T01:18:56.074Z,42.60
2017-08-08T01:21:24.187Z,43.30
2017-08-08T01:23:52.263Z,43.70
2017-08-08T01:26:21.103Z,43.20
2017-08-08T01:28:49.305Z,42.70
2017-08-08T01:31:17.883Z,42.60
2017-08-08T01:33:46.062Z,43.10
2017-08-08T01:36:14.226Z,42.10
2017-08-08T01:38:42.415Z,42.60
2017-08-08T01:41:10.578Z,42.40
2017-08-08T01:43:38.658Z,42.60
2017-08-08T01:46:06.822Z,41.90
2017-08-08T01:48:35.010Z,42.50
2017-08-08T01:51:03.086Z,42.30
2017-08-08T01:53:31.247Z,42.60
2017-08-08T01:55:59.755Z,42.10
2017-08-08T01:58:27.906Z,42.60
2017-08-08T02:00:55.991Z,42.60
2017-08-08T02:03:24.146Z,43.10
2017-08-08T02:05:52.219Z,42.60
2017-08-08T02:08:20.811Z,43.20
2017-08-08T02:10:48.974Z,42.40
2017-08-08T02:13:17.146Z,43.30
2017-08-08T02:15:45.637Z,43.00
2017-08-08T02:18:13.742Z,42.80
2017-08-08T02:20:42.614Z,44.30
2017-08-08T02:23:10.767Z,43.30
2017-08-08T02:25:38.846Z,43.90
2017-08-08T02:28:06.938Z,44.30
2017-08-08T02:30:35.187Z,44.20
2017-08-08T02:33:03.266Z,44.80
2017-08-08T02:35:31.435Z,43.80
2017-08-08T02:37:59.606Z,44.00
2017-08-08T02:40:28.711Z,44.40
2017-08-08T02:42:56.879Z,44.90
2017-08-08T02:45:24.959Z,44.50
2017-08-08T02:47:53.122Z,44.50
2017-08-08T02:50:21.201Z,44.50
2017-08-08T02:52:49.784Z,44.70
2017-08-08T02:55:17.956Z,44.60
2017-08-08T02:57:46.042Z,45.10
2017-08-08T03:00:14.154Z,45.60
2017-08-08T03:02:42.270Z,45.70
2017-08-08T03:05:10.451Z,45.20
2017-08-08T03:07:38.554Z,44.50
2017-08-08T03:10:07.523Z,44.80
2017-08-08T03:12:35.686Z,44.00
2017-08-08T03:15:03.858Z,43.60
2017-08-08T03:17:32.388Z,43.50
2017-08-08T03:20:01.258Z,44.60
2017-08-08T03:22:29.418Z,43.90
2017-08-08T03:24:57.587Z,44.20
2017-08-08T03:27:25.686Z,44.30
2017-08-08T03:29:54.167Z,43.60
2017-08-08T03:32:22.263Z,44.10
2017-08-08T03:34:50.490Z,44.00
2017-08-08T03:37:18.570Z,44.50
2017-08-08T03:39:46.646Z,44.50
2017-08-08T03:42:14.750Z,44.40
2017-08-08T03:44:42.822Z,44.40
2017-08-08T03:47:10.928Z,44.40
2017-08-08T03:49:39.000Z,44.00
2017-08-08T03:52:07.224Z,44.10
2017-08-08T03:54:35.774Z,44.30
2017-08-08T03:57:03.955Z,44.80
2017-08-08T03:59:32.135Z,44.00
2017-08-08T04:02:00.710Z,44.30
2017-08-08T04:04:28.798Z,44.90
2017-08-08T04:06:56.956Z,45.10
2017-08-08T04:09:25.842Z,45.10
2017-08-08T04:11:54.031Z,45.30
2017-08-08T04:14:22.195Z,45.80
2017-08-08T04:16:50.366Z,45.30
2017-08-08T04:19:18.846Z,45.20
2017-08-08T04:21:46.941Z,45.80
2017-08-08T04:24:15.015Z,45.90
2017-08-08T04:26:43.112Z,45.90
2017-08-08T04:29:11.962Z,45.60
2017-08-08T04:31:40.134Z,46.10
2017-08-08T04:34:08.355Z,45.80
2017-08-08T04:36:36.887Z,46.00
2017-08-08T04:39:05.062Z,46.50
2017-08-08T04:41:33.643Z,46.00
2017-08-08T04:44:01.722Z,46.00
2017-08-08T04:46:29.898Z,46.70
2017-08-08T04:48:58.067Z,46.50
2017-08-08T04:51:26.667Z,46.40
2017-08-08T04:53:54.834Z,47.00
2017-08-08T04:56:23.003Z,46.70
2017-08-08T04:58:51.143Z,47.30
2017-08-08T05:01:19.218Z,46.80
2017-08-08T05:03:47.423Z,47.30
2017-08-08T05:06:16.003Z,46.10
2017-08-08T05:08:44.088Z,46.90
2017-08-08T05:11:12.223Z,47.40
2017-08-08T05:13:40.330Z,46.60
2017-08-08T05:16:08.804Z,47.30
2017-08-08T05:18:36.982Z,48.00
2017-08-08T05:21:05.162Z,47.40
2017-08-08T05:23:33.326Z,47.90
2017-08-08T05:26:01.502Z,46.60
2017-08-08T05:28:29.675Z,46.50
2017-08-08T05:30:57.751Z,45.50
2017-08-08T05:33:25.918Z,46.70
2017-08-08T05:35:54.502Z,46.80
2017-08-08T05:38:22.679Z,46.60
2017-08-08T05:40:50.754Z,45.90
2017-08-08T05:43:19.334Z,46.80
2017-08-08T05:45:47.922Z,45.70
2017-08-08T05:48:16.502Z,45.60
2017-08-08T05:50:44.579Z,45.30
2017-08-08T05:53:12.682Z,45.30
2017-08-08T05:55:41.226Z,45.00
2017-08-08T05:58:09.403Z,45.10
2017-08-08T06:00:37.574Z,45.50
2017-08-08T06:03:05.755Z,45.30
2017-08-08T06:05:33.933Z,45.00
2017-08-08T06:08:02.823Z,45.10
2017-08-08T06:10:31.406Z,45.90
2017-08-08T06:12:59.482Z,46.10
2017-08-08T06:15:27.654Z,45.20
2017-08-08T06:17:55.826Z,44.60
2017-08-08T06:20:23.902Z,42.80
2017-08-08T06:22:51.986Z,44.10
2017-08-08T06:25:20.137Z,43.60
2017-08-08T06:27:48.314Z,43.20
2017-08-08T06:30:16.426Z,43.30
2017-08-08T06:32:45.283Z,43.40
2017-08-08T06:35:13.372Z,43.40
2017-08-08T06:37:41.466Z,42.70
2017-08-08T06:40:09.593Z,43.80
2017-08-08T06:42:37.770Z,43.80
2017-08-08T06:45:05.951Z,43.60
2017-08-08T06:47:34.121Z,44.40
2017-08-08T06:50:03.006Z,44.40
2017-08-08T06:52:31.185Z,44.50
2017-08-08T06:55:00.074Z,43.50
2017-08-08T06:57:28.247Z,43.90
2017-08-08T06:59:56.323Z,43.20
2017-08-08T07:02:24.430Z,44.00
2017-08-08T07:04:53.275Z,44.20
2017-08-08T07:07:21.358Z,44.20
2017-08-08T07:09:49.540Z,44.60
2017-08-08T07:12:17.706Z,43.30
2017-08-08T07:14:45.878Z,43.80
2017-08-08T07:17:13.973Z,44.40
2017-08-08T07:19:42.123Z,44.40
2017-08-08T07:22:10.708Z,44.50
2017-08-08T07:24:38.882Z,43.80
2017-08-08T07:27:07.058Z,44.00
2017-08-08T07:29:35.539Z,43.50
2017-08-08T07:32:03.618Z,44.00
2017-08-08T07:34:31.719Z,44.40
2017-08-08T07:37:00.679Z,43.80
2017-08-08T07:39:28.851Z,43.60
2017-08-08T07:41:57.026Z,44.50
2017-08-08T07:44:25.106Z,43.10
2017-08-08T07:46:53.222Z,43.60
2017-08-08T07:49:21.294Z,42.90
2017-08-08T07:51:49.371Z,43.50
2017-08-08T07:54:17.471Z,43.60
2017-08-08T07:56:45.943Z,43.90
2017-08-08T07:59:14.018Z,44.40
2017-08-08T08:01:42.220Z,44.20
2017-08-08T08:04:10.391Z,44.50
2017-08-08T08:06:38.559Z,44.20
2017-08-08T08:09:06.662Z,42.90
2017-08-08T08:11:35.510Z,43.40
2017-08-08T08:14:03.603Z,43.30
2017-08-08T08:16:31.776Z,44.40
2017-08-08T08:18:59.847Z,41.10
2017-08-08T08:21:27.950Z,43.10
2017-08-08T08:23:56.026Z,42.00
2017-08-08T08:26:24.875Z,43.10
2017-08-08T08:28:53.055Z,43.00
2017-08-08T08:31:21.946Z,41.60
2017-08-08T08:33:50.123Z,43.10
2017-08-08T08:36:18.297Z,43.50
2017-08-08T08:38:46.467Z,43.30
2017-08-08T08:41:14.571Z,42.60
2017-08-08T08:43:43.530Z,45.30
2017-08-08T08:46:11.708Z,44.70
2017-08-08T08:48:40.559Z,43.70
2017-08-08T08:51:08.667Z,43.50
2017-08-08T08:53:37.522Z,42.60
2017-08-08T08:56:05.619Z,42.50
2017-08-08T08:58:33.694Z,43.60
2017-08-08T09:01:02.560Z,42.40
2017-08-08T09:03:31.024Z,39.90
2017-08-08T09:05:59.115Z,40.30
2017-08-08T09:08:27.190Z,40.70
2017-08-08T09:10:55.302Z,41.30
2017-08-08T09:13:23.387Z,41.70
2017-08-08T09:15:51.462Z,41.40
2017-08-08T09:18:19.583Z,43.50
2017-08-08T09:20:47.659Z,44.00
2017-08-08T09:23:15.734Z,43.90
2017-08-08T09:25:43.838Z,45.70
2017-08-08T09:28:11.915Z,46.50
2017-08-08T09:30:40.386Z,42.70
2017-08-08T09:33:08.487Z,42.90
2017-08-08T09:35:37.358Z,46.30
2017-08-08T09:38:05.430Z,46.20
2017-08-08T09:40:33.502Z,43.30
2017-08-08T09:43:01.602Z,44.00
2017-08-08T09:45:29.682Z,43.80
2017-08-08T09:47:57.786Z,43.90
2017-08-08T09:50:25.863Z,43.30
2017-08-08T09:52:53.943Z,43.70
2017-08-08T09:55:22.134Z,43.40
2017-08-08T09:57:50.211Z,44.10
2017-08-08T10:00:18.318Z,44.60
2017-08-08T10:02:46.402Z,45.10
2017-08-08T10:05:14.474Z,46.70
2017-08-08T10:07:42.574Z,46.70
2017-08-08T10:10:10.671Z,47.10
2017-08-08T10:12:38.746Z,47.10
2017-08-08T10:15:06.842Z,47.10
2017-08-08T10:17:35.702Z,49.50
2017-08-08T10:20:03.775Z,49.50
2017-08-08T10:22:31.876Z,50.90
2017-08-08T10:25:00.724Z,54.20
2017-08-08T10:27:28.812Z,54.20
2017-08-08T10:29:56.915Z,53.40
2017-08-08T10:32:24.998Z,53.50
2017-08-08T10:34:53.088Z,52.20
2017-08-08T10:37:21.230Z,52.30
2017-08-08T10:39:49.306Z,51.80
2017-08-08T10:42:17.382Z,50.50
2017-08-08T10:44:45.888Z,49.00
2017-08-08T10:47:13.968Z,49.50
2017-08-08T10:49:42.136Z,46.70
2017-08-08T10:52:10.211Z,47.40
2017-08-08T10:54:38.290Z,46.90
2017-08-08T10:57:06.388Z,47.50
2017-08-08T10:59:34.486Z,46.20
2017-08-08T11:02:03.327Z,46.50
2017-08-08T11:04:31.426Z,46.80
2017-08-08T11:06:59.553Z,47.10
2017-08-08T11:09:28.370Z,46.90
2017-08-08T11:11:56.474Z,46.90
2017-08-08T11:14:25.342Z,46.00
2017-08-08T11:16:53.419Z,46.50
2017-08-08T11:19:21.515Z,46.00
2017-08-08T11:21:50.354Z,46.10
2017-08-08T11:24:18.460Z,46.00
2017-08-08T11:26:46.530Z,46.80
2017-08-08T11:29:14.632Z,49.20
2017-08-08T11:31:43.510Z,49.70
2017-08-08T11:34:11.578Z,49.70
2017-08-08T11:36:40.435Z,51.60
2017-08-08T11:39:08.518Z,51.00
2017-08-08T11:41:36.616Z,52.50
2017-08-08T11:44:05.494Z,53.10
2017-08-08T11:46:33.574Z,53.10
2017-08-08T11:49:02.416Z,55.50
2017-08-08T11:51:30.514Z,55.00
2017-08-08T11:53:58.654Z,55.60
2017-08-08T11:56:26.727Z,56.90
2017-08-08T11:58:54.802Z,58.90
2017-08-08T12:01:22.899Z,60.20
2017-08-08T12:03:50.994Z,60.70
2017-08-08T12:06:19.075Z,61.10
2017-08-08T12:08:47.966Z,62.00
2017-08-08T12:11:16.823Z,62.90
2017-08-08T12:13:44.892Z,62.20
2017-08-08T12:16:13.003Z,59.30
2017-08-08T12:18:41.847Z,60.70
2017-08-08T12:21:09.926Z,58.50
2017-08-08T12:23:38.042Z,57.90
2017-08-08T12:26:07.627Z,59.40
2017-08-08T12:28:36.486Z,60.50
2017-08-08T12:31:04.603Z,60.50
2017-08-08T12:33:33.455Z,61.20
2017-08-08T12:36:01.938Z,59.70
2017-08-08T12:38:30.043Z,60.20
2017-08-08T12:40:58.934Z,60.20
2017-08-08T12:43:27.794Z,60.10
2017-08-08T12:45:55.875Z,57.10
2017-08-08T12:48:23.982Z,57.70
2017-08-08T12:50:52.851Z,55.10
2017-08-08T12:53:26.602Z,53.30
2017-08-08T12:55:54.682Z,53.40
2017-08-08T12:58:22.758Z,50.00
2017-08-08T13:00:50.870Z,43.30
2017-08-08T13:03:18.946Z,42.80
2017-08-08T13:05:47.023Z,42.40
2017-08-08T13:08:15.139Z,42.30
2017-08-08T13:10:43.220Z,39.30
2017-08-08T13:13:11.304Z,36.30
2017-08-08T13:15:39.394Z,36.90
2017-08-08T13:18:07.477Z,37.70
2017-08-08T13:20:35.543Z,38.90
2017-08-08T13:23:03.642Z,39.70
2017-08-08T13:25:32.480Z,38.10
2017-08-08T13:28:00.584Z,38.00
2017-08-08T13:30:28.667Z,37.50
2017-08-08T13:32:56.734Z,38.40
2017-08-08T13:35:24.830Z,39.40
2017-08-08T13:37:52.971Z,39.90
2017-08-08T13:40:21.055Z,41.90
2017-08-08T13:42:49.131Z,41.90
2017-08-08T13:45:18.002Z,44.60
2017-08-08T13:47:46.075Z,46.20
2017-08-08T13:50:14.154Z,47.10
2017-08-08T13:52:42.271Z,47.70
2017-08-08T13:55:11.115Z,49.20
2017-08-08T13:57:39.182Z,49.80
2017-08-08T14:00:07.303Z,50.10
2017-08-08T14:02:35.374Z,51.00
2017-08-08T14:05:03.455Z,51.40
2017-08-08T14:07:31.574Z,50.30
2017-08-08T14:09:59.651Z,49.40
2017-08-08T14:12:27.727Z,49.80
2017-08-08T14:14:55.830Z,49.90
2017-08-08T14:17:23.940Z,50.10
2017-08-08T14:19:52.015Z,51.60
2017-08-08T14:22:20.095Z,53.50
2017-08-08T14:24:48.206Z,53.80
2017-08-08T14:27:16.686Z,56.10
2017-08-08T14:29:44.763Z,56.90
2017-08-08T14:32:12.866Z,61.10
2017-08-08T14:34:40.955Z,61.50
2017-08-08T14:37:09.060Z,64.60
2017-08-08T14:39:37.136Z,65.40
2017-08-08T14:42:05.598Z,65.70
2017-08-08T14:44:33.708Z,66.20
2017-08-08T14:47:02.578Z,59.60
2017-08-08T14:49:30.655Z,57.50
2017-08-08T14:51:59.519Z,49.10
2017-08-08T14:54:27.598Z,49.60
2017-08-08T14:56:55.711Z,50.00
2017-08-08T14:59:23.791Z,52.00
2017-08-08T15:01:52.259Z,50.30
2017-08-08T15:04:20.747Z,48.90
2017-08-08T15:06:48.834Z,49.40
2017-08-08T15:09:16.918Z,43.10
2017-08-08T15:11:45.021Z,41.50
2017-08-08T15:14:13.103Z,42.60
2017-08-08T15:16:41.194Z,41.20
2017-08-08T15:19:10.069Z,42.10
2017-08-08T15:21:39.539Z,41.50
2017-08-08T15:24:07.614Z,42.70
2017-08-08T15:26:35.730Z,43.80
2017-08-08T15:29:05.262Z,44.00
2017-08-08T15:31:33.338Z,42.40
2017-08-08T15:34:01.439Z,43.00
2017-08-08T15:36:29.515Z,41.00
2017-08-08T15:38:58.007Z,41.60
2017-08-08T15:41:26.087Z,40.90
2017-08-08T15:43:54.168Z,38.10
2017-08-08T15:46:22.309Z,34.00
2017-08-08T15:48:50.385Z,34.70
2017-08-08T15:51:18.458Z,36.10
2017-08-08T15:53:46.598Z,37.30
2017-08-08T15:56:14.702Z,40.10
2017-08-08T15:58:42.774Z,40.60
2017-08-08T16:01:10.850Z,42.10
2017-08-08T16:03:38.940Z,42.90
2017-08-08T16:06:07.015Z,42.50
2017-08-08T16:08:35.123Z,43.20
2017-08-08T16:11:03.969Z,39.40
2017-08-08T16:13:32.059Z,39.40
2017-08-08T16:16:00.134Z,39.90
2017-08-08T16:18:28.986Z,38.40
2017-08-08T16:20:57.100Z,38.10
2017-08-08T16:23:25.943Z,40.00
2017-08-08T16:25:54.031Z,40.00
2017-08-08T16:28:22.134Z,40.40
2017-08-08T16:30:50.975Z,41.30
2017-08-08T16:33:19.460Z,40.50
2017-08-08T16:35:47.582Z,41.40
2017-08-08T16:38:16.423Z,41.30
2017-08-08T16:40:44.926Z,41.10
2017-08-08T16:43:12.998Z,41.70
2017-08-08T16:45:41.076Z,42.20
2017-08-08T16:48:09.183Z,40.20
2017-08-08T16:50:38.034Z,39.30
2017-08-08T16:53:06.122Z,38.00
2017-08-08T16:55:34.246Z,37.60
2017-08-08T16:58:02.322Z,36.70
2017-08-08T17:00:30.404Z,36.40
2017-08-08T17:02:58.499Z,36.80
2017-08-08T17:05:26.609Z,36.50
2017-08-08T17:07:55.454Z,35.00
2017-08-08T17:10:23.533Z,34.90
2017-08-08T17:12:51.634Z,35.60
2017-08-08T17:15:20.474Z,35.80
2017-08-08T17:17:48.546Z,35.70
2017-08-08T17:20:16.642Z,36.40
2017-08-08T17:22:44.722Z,37.00
2017-08-08T17:25:12.827Z,36.60
2017-08-08T17:27:40.899Z,37.30
2017-08-08T17:30:08.980Z,38.40
2017-08-08T17:32:37.090Z,38.00
2017-08-08T17:35:05.167Z,38.10
2017-08-08T17:37:33.246Z,38.10
2017-08-08T17:40:01.343Z,39.20
2017-08-08T17:42:30.178Z,40.30
2017-08-08T17:44:58.282Z,40.20
2017-08-08T17:47:26.346Z,40.10
2017-08-08T17:49:54.458Z,40.10
2017-08-08T17:52:23.302Z,39.70
2017-08-08T17:54:51.378Z,39.70
2017-08-08T17:57:19.481Z,39.80
2017-08-08T17:59:47.573Z,39.80
2017-08-08T18:02:16.431Z,40.10
2017-08-08T18:04:44.503Z,40.00
2017-08-08T18:07:12.606Z,40.30
2017-08-08T18:09:41.443Z,40.50
2017-08-08T18:12:09.558Z,40.50
2017-08-08T18:14:38.398Z,41.00
2017-08-08T18:17:06.486Z,41.00
2017-08-08T18:19:34.580Z,40.80
2017-08-08T18:22:02.658Z,41.00
2017-08-08T18:24:31.535Z,42.10
2017-08-08T18:26:59.607Z,41.70
2017-08-08T18:29:27.731Z,42.00
2017-08-08T18:31:56.641Z,42.50
2017-08-08T18:34:24.678Z,42.70
2017-08-08T18:36:52.762Z,42.20
2017-08-08T18:39:20.854Z,41.80
2017-08-08T18:41:48.967Z,42.30
2017-08-08T18:44:17.042Z,42.00
2017-08-08T18:46:45.122Z,41.70
2017-08-08T18:49:13.610Z,41.90
2017-08-08T18:51:42.454Z,43.10
2017-08-08T18:54:10.551Z,42.90
2017-08-08T18:56:38.627Z,42.90
2017-08-08T18:59:06.723Z,43.10
2017-08-08T19:01:34.827Z,43.30
2017-08-08T19:04:02.910Z,43.80
2017-08-08T19:06:30.982Z,43.70
2017-08-08T19:08:59.095Z,44.10
2017-08-08T19:11:27.935Z,44.90
2017-08-08T19:13:56.051Z,44.60
2017-08-08T19:16:24.127Z,44.70
2017-08-08T19:18:52.966Z,45.70
2017-08-08T19:21:21.075Z,44.80
2017-08-08T19:23:49.154Z,45.50
2017-08-08T19:26:17.230Z,45.50
2017-08-08T19:28:45.451Z,45.90
2017-08-08T19:31:13.589Z,46.00
2017-08-08T19:33:41.664Z,45.90
2017-08-08T19:36:10.556Z,47.00
2017-08-08T19:38:39.395Z,47.10
2017-08-08T19:41:07.474Z,46.80
2017-08-08T19:43:35.588Z,47.10
2017-08-08T19:46:03.697Z,46.50
2017-08-08T19:48:31.802Z,46.70
2017-08-08T19:50:59.886Z,47.00
2017-08-08T19:53:28.742Z,46.40
2017-08-08T19:55:56.840Z,45.50
2017-08-08T19:58:25.314Z,45.80
2017-08-08T20:00:53.445Z,46.20
2017-08-08T20:03:21.522Z,46.60
2017-08-08T20:05:49.597Z,47.20
2017-08-08T20:08:18.467Z,46.30
2017-08-08T20:10:47.334Z,47.10
2017-08-08T20:13:15.807Z,47.30
2017-08-08T20:15:43.902Z,47.00
2017-08-08T20:18:12.742Z,47.40
2017-08-08T20:20:40.849Z,46.60
2017-08-08T20:23:08.951Z,47.20
2017-08-08T20:25:37.026Z,47.30
2017-08-08T20:28:05.102Z,47.70
2017-08-08T20:30:33.199Z,48.00
2017-08-08T20:33:01.306Z,47.30
2017-08-08T20:35:29.378Z,48.10
2017-08-08T20:37:57.474Z,48.00
2017-08-08T20:40:26.343Z,48.40
2017-08-08T20:42:54.457Z,48.40
2017-08-08T20:45:23.375Z,48.30
2017-08-08T20:47:51.447Z,48.30
2017-08-08T20:50:19.520Z,48.80
2017-08-08T20:52:47.594Z,49.00
2017-08-08T20:55:15.691Z,49.10
2017-08-08T20:57:43.770Z,49.50
2017-08-08T21:00:11.886Z,48.90
2017-08-08T21:02:39.965Z,49.00
2017-08-08T21:05:08.042Z,49.40
2017-08-08T21:07:36.169Z,49.60
2017-08-08T21:10:05.019Z,49.70
2017-08-08T21:12:33.091Z,50.20
2017-08-08T21:15:01.212Z,50.40
2017-08-08T21:17:30.055Z,50.80
2017-08-08T21:19:58.143Z,50.70
2017-08-08T21:22:26.258Z,50.50
2017-08-08T21:24:54.342Z,50.80
2017-08-08T21:27:22.440Z,52.10
2017-08-08T21:29:50.515Z,53.00
2017-08-08T21:32:18.615Z,53.60
2017-08-08T21:34:46.719Z,54.50
2017-08-08T21:37:14.800Z,55.00
2017-08-08T21:39:42.902Z,54.30
2017-08-08T21:42:10.982Z,54.90
2017-08-08T21:44:39.107Z,55.20
2017-08-08T21:47:07.951Z,55.90
2017-08-08T21:49:36.029Z,55.90
2017-08-08T21:52:04.134Z,55.70
2017-08-08T21:54:32.612Z,55.70
2017-08-08T21:57:01.454Z,56.80
2017-08-08T21:59:29.551Z,56.50
2017-08-08T22:01:57.682Z,57.00
2017-08-08T22:04:26.499Z,57.60
2017-08-08T22:06:54.599Z,56.60
2017-08-08T22:09:23.106Z,56.50
2017-08-08T22:11:51.186Z,56.30
2017-08-08T22:14:19.254Z,55.30
2017-08-08T22:16:47.350Z,54.80
2017-08-08T22:19:15.822Z,55.30
2017-08-08T22:21:43.927Z,55.00
2017-08-08T22:24:12.398Z,55.30
2017-08-08T22:26:40.475Z,55.50
2017-08-08T22:29:08.571Z,55.10
2017-08-08T22:31:36.646Z,54.90
2017-08-08T22:34:04.762Z,54.90
2017-08-08T22:36:32.856Z,54.80
2017-08-08T22:39:00.955Z,55.10
2017-08-08T22:41:29.050Z,55.00
2017-08-08T22:43:57.159Z,55.50
2017-08-08T22:46:25.238Z,56.00
2017-08-08T22:48:53.315Z,56.40
2017-08-08T22:51:21.410Z,56.30
2017-08-08T22:53:49.551Z,56.10
2017-08-08T22:56:17.634Z,56.60
2017-08-08T22:58:45.708Z,56.50
2017-08-08T23:01:13.810Z,56.10
2017-08-08T23:03:41.890Z,55.50
2017-08-08T23:06:09.967Z,55.90
2017-08-08T23:08:38.831Z,57.00
2017-08-08T23:11:06.912Z,56.20
2017-08-08T23:13:35.046Z,55.80
2017-08-08T23:16:03.139Z,56.50
2017-08-08T23:18:31.218Z,57.00
2017-08-08T23:20:59.332Z,57.20
2017-08-08T23:23:28.178Z,58.40
2017-08-08T23:25:56.652Z,57.40
2017-08-08T23:28:24.757Z,57.70
2017-08-08T23:30:52.834Z,58.20
2017-08-08T23:33:20.950Z,57.70
2017-08-08T23:41:44.036Z,57.30
2017-08-08T23:44:12.516Z,56.20
2017-08-08T23:46:40.608Z,56.70
2017-08-08T23:49:08.937Z,55.20
2017-08-08T23:51:37.006Z,55.70
2017-08-08T23:54:05.085Z,55.90
2017-08-08T23:56:33.191Z,56.00
2017-08-08T23:59:01.267Z,55.90
